Time;durP1;ratioP1;P1;durP2;ratioP2;P2;SDS_P1;SDS_P2;PMS_P1;PMS_P2;Temp;Humidity;BMP_temperature;BMP_pressure;BME280_temperature;BME280_humidity;BME280_pressure;Samples;Min_cycle;Max_cycle;Signal;HPM_P1;HPM_P2
2022/02/16 00:04:27;;;;;;;5.15;2.20;;;;;;;7.01;59.03;99178.28;10315421;28;20575;-70
2022/02/16 00:09:29;;;;;;;7.28;2.28;;;;;;;7.09;58.79;99173.47;10310499;28;20214;-71
2022/02/16 00:14:30;;;;;;;5.43;2.13;;;;;;;7.11;59.03;99162.97;10292662;28;20135;-70
2022/02/16 00:19:32;;;;;;;5.20;2.10;;;;;;;7.11;59.24;99158.63;10309335;28;20081;-70
2022/02/16 00:24:34;;;;;;;6.03;2.00;;;;;;;7.12;59.35;99136.88;10314630;28;20052;-70
2022/02/16 00:29:36;;;;;;;8.25;2.38;;;;;;;7.16;59.65;99142.75;10321503;28;20054;-70
2022/02/16 00:34:37;;;;;;;6.30;2.58;;;;;;;7.00;60.40;99128.94;10309209;28;20050;-71
2022/02/16 00:39:39;;;;;;;6.43;2.60;;;;;;;6.94;60.92;99124.09;10308028;28;20143;-69
2022/02/16 00:44:41;;;;;;;7.05;2.92;;;;;;;6.88;61.03;99127.06;10323161;28;20481;-69
2022/02/16 00:49:43;;;;;;;6.55;2.70;;;;;;;6.92;61.32;99134.59;10340401;28;20054;-69
2022/02/16 00:54:44;;;;;;;6.57;2.80;;;;;;;7.00;61.05;99115.94;10307816;28;20054;-69
2022/02/16 00:59:46;;;;;;;4.97;2.55;;;;;;;6.88;61.35;99109.69;10335066;28;20054;-69
2022/02/16 01:04:48;;;;;;;6.70;2.75;;;;;;;6.84;61.78;99103.00;10307515;28;20054;-69
2022/02/16 01:09:49;;;;;;;4.85;2.30;;;;;;;6.80;61.91;99088.53;10310744;28;20056;-69
2022/02/16 01:14:51;;;;;;;7.57;2.50;;;;;;;6.79;62.12;99080.81;10307008;28;20046;-69
2022/02/16 01:19:53;;;;;;;5.88;2.33;;;;;;;6.80;62.12;99074.69;10309530;28;20444;-70
2022/02/16 01:24:55;;;;;;;4.18;2.28;;;;;;;6.88;62.20;99072.47;10306830;28;20252;-70
2022/02/16 01:29:56;;;;;;;3.80;2.25;;;;;;;6.73;62.33;99065.59;10306155;28;20306;-69
2022/02/16 01:34:59;;;;;;;5.45;2.40;;;;;;;6.74;62.38;99062.03;10314100;28;20061;-70
2022/02/16 01:40:01;;;;;;;4.85;1.90;;;;;;;6.75;62.18;99048.13;10316678;28;20050;-70
2022/02/16 01:45:05;;;;;;;5.82;2.28;;;;;;;6.73;62.53;99050.00;10308491;28;20387;-70
2022/02/16 01:50:09;;;;;;;5.15;2.08;;;;;;;6.74;62.48;99028.25;10305968;28;20054;-70
2022/02/16 01:55:11;;;;;;;4.80;2.10;;;;;;;6.73;62.51;99024.84;10320069;28;20050;-70
2022/02/16 02:00:13;;;;;;;2.95;1.80;;;;;;;6.54;62.99;99018.19;10307603;28;20129;-70
2022/02/16 02:05:15;;;;;;;2.90;1.80;;;;;;;6.64;62.67;99006.34;10305167;28;20336;-70
2022/02/16 02:10:17;;;;;;;4.80;2.10;;;;;;;6.74;62.39;99002.28;10305452;28;20048;-69
2022/02/16 02:15:23;;;;;;;3.28;2.25;;;;;;;6.78;62.40;98985.59;10305531;28;20050;-70
2022/02/16 02:20:26;;;;;;;5.07;2.20;;;;;;;6.77;62.19;98979.56;10305674;28;20463;-70
2022/02/16 02:25:28;;;;;;;4.30;2.47;;;;;;;6.71;62.42;98966.94;10304099;28;20080;-70
2022/02/16 02:30:30;;;;;;;3.55;2.08;;;;;;;6.76;62.22;98964.06;10306813;28;20050;-69
2022/02/16 02:35:32;;;;;;;3.63;2.00;;;;;;;6.77;62.30;98958.78;10312499;28;20121;-69
2022/02/16 02:40:34;;;;;;;3.80;2.15;;;;;;;6.77;62.44;98953.59;10338589;28;20117;-69
2022/02/16 02:45:36;;;;;;;2.80;1.88;;;;;;;6.90;62.38;98943.25;10336759;28;20379;-70
2022/02/16 02:50:38;;;;;;;3.10;1.70;;;;;;;6.71;62.79;98937.53;10304551;28;20189;-70
2022/02/16 02:55:40;;;;;;;2.75;1.70;;;;;;;6.80;62.63;98927.41;10325163;28;20149;-70
2022/02/16 03:00:42;;;;;;;2.50;1.50;;;;;;;6.92;62.27;98918.88;10318557;28;20137;-71
2022/02/16 03:05:44;;;;;;;2.92;1.67;;;;;;;6.83;62.56;98908.19;10316837;28;20105;-70
2022/02/16 03:10:45;;;;;;;2.42;1.58;;;;;;;6.86;62.61;98900.19;10335664;28;20149;-69
2022/02/16 03:15:49;;;;;;;2.90;1.50;;;;;;;6.85;62.66;98894.19;10311391;28;20133;-69
2022/02/16 03:20:51;;;;;;;3.38;1.40;;;;;;;6.83;62.64;98895.19;10337588;28;20064;-69
2022/02/16 03:25:53;;;;;;;1.85;1.30;;;;;;;6.83;62.64;98901.25;10311815;28;20525;-69
2022/02/16 03:30:55;;;;;;;3.28;1.35;;;;;;;6.96;62.17;98896.09;10310402;28;20414;-69
2022/02/16 03:36:04;;;;;;;2.72;1.50;;;;;;;7.01;62.23;98876.72;10338585;28;20062;-69
2022/02/16 03:41:06;;;;;;;3.92;1.40;;;;;;;6.97;62.67;98866.59;10317646;28;20446;-69
2022/02/16 03:46:08;;;;;;;3.47;1.52;;;;;;;6.89;63.33;98863.63;10332853;28;20495;-69
2022/02/16 03:51:09;;;;;;;4.93;1.52;;;;;;;6.78;63.74;98864.28;10346544;28;20185;-69
2022/02/16 03:56:11;;;;;;;4.10;1.60;;;;;;;6.82;63.93;98852.78;10317843;28;20165;-69
2022/02/16 04:01:13;;;;;;;2.05;1.33;;;;;;;6.77;64.26;98852.25;10332756;28;20060;-69
2022/02/16 04:06:17;;;;;;;2.13;1.27;;;;;;;6.58;64.93;98836.09;10323470;28;20297;-69
2022/02/16 04:11:20;;;;;;;2.45;1.40;;;;;;;6.67;65.21;98821.72;10309923;28;20617;-69
2022/02/16 04:16:23;;;;;;;2.95;1.50;;;;;;;6.62;65.15;98834.13;10349580;28;20550;-69
2022/02/16 04:21:25;;;;;;;1.98;1.30;;;;;;;6.60;65.33;98828.19;10341444;28;20399;-68
2022/02/16 04:26:27;;;;;;;1.58;1.20;;;;;;;6.66;65.22;98830.44;10349552;28;20487;-69
2022/02/16 04:31:28;;;;;;;2.10;1.40;;;;;;;6.77;64.91;98828.84;10349658;28;20080;-69
2022/02/16 04:36:33;;;;;;;1.88;1.30;;;;;;;6.73;64.90;98823.94;10325032;28;20046;-69
2022/02/16 04:41:35;;;;;;;2.03;1.40;;;;;;;6.78;64.86;98819.28;10309143;28;20503;-69
2022/02/16 04:46:37;;;;;;;1.98;1.30;;;;;;;6.78;64.79;98806.28;10345904;28;20403;-70
2022/02/16 04:51:38;;;;;;;1.92;1.20;;;;;;;6.93;64.45;98777.59;10307013;28;20082;-70
2022/02/16 04:56:40;;;;;;;3.00;1.40;;;;;;;6.89;64.41;98786.50;10348636;28;20145;-70
2022/02/16 05:01:42;;;;;;;1.52;1.30;;;;;;;6.88;64.36;98774.44;10321062;28;20589;-70
2022/02/16 05:06:45;;;;;;;3.03;1.40;;;;;;;6.94;64.67;98775.81;10310411;28;20133;-70
2022/02/16 05:11:47;;;;;;;2.15;1.50;;;;;;;6.92;65.01;98780.25;10308994;28;20112;-71
2022/02/16 05:16:48;;;;;;;16.42;8.82;;;;;;;6.83;65.35;98775.66;10306244;28;20066;-70
2022/02/16 05:21:50;;;;;;;6.68;4.00;;;;;;;6.78;65.88;98756.91;10342372;28;20050;-70
2022/02/16 05:26:52;;;;;;;13.35;8.60;;;;;;;6.89;65.46;98744.09;10306849;28;20050;-70
2022/02/16 05:31:54;;;;;;;3.80;2.28;;;;;;;6.85;65.62;98748.66;10306817;28;20149;-71
2022/02/16 05:36:55;;;;;;;3.88;2.20;;;;;;;7.00;65.31;98739.03;10343634;28;20410;-72
2022/02/16 05:41:57;;;;;;;3.45;2.17;;;;;;;7.08;65.03;98742.00;10306617;28;20054;-71
2022/02/16 05:46:59;;;;;;;3.22;1.60;;;;;;;6.95;65.61;98728.94;10325675;28;20410;-71
2022/02/16 05:52:01;;;;;;;4.10;2.33;;;;;;;6.93;65.84;98714.38;10344714;28;20049;-71
2022/02/16 05:57:03;;;;;;;4.72;2.80;;;;;;;6.92;65.98;98707.50;10305984;28;20133;-71
2022/02/16 06:02:05;;;;;;;4.88;2.60;;;;;;;6.97;65.81;98702.84;10314171;28;20062;-71
2022/02/16 06:07:06;;;;;;;3.10;1.70;;;;;;;6.96;65.93;98698.56;10305693;28;20066;-70
2022/02/16 06:12:08;;;;;;;2.35;1.42;;;;;;;6.94;65.98;98693.47;10339083;28;20052;-71
2022/02/16 06:17:10;;;;;;;2.70;1.20;;;;;;;6.93;66.13;98696.19;10331158;28;20056;-71
2022/02/16 06:22:12;;;;;;;2.30;1.30;;;;;;;6.89;66.26;98690.34;10345544;28;20056;-70
2022/02/16 06:27:13;;;;;;;2.15;1.20;;;;;;;6.85;66.62;98691.50;10306209;28;20055;-72
2022/02/16 06:32:15;;;;;;;2.20;1.52;;;;;;;6.84;66.89;98676.81;10305104;28;20054;-72
2022/02/16 06:37:17;;;;;;;3.92;1.40;;;;;;;6.84;66.71;98670.78;10314361;28;20592;-72
2022/02/16 06:42:20;;;;;;;1.73;1.27;;;;;;;6.86;66.54;98672.34;10306743;28;20193;-72
2022/02/16 06:47:22;;;;;;;2.10;1.60;;;;;;;6.98;66.46;98660.31;10345222;28;20053;-72
2022/02/16 06:52:23;;;;;;;2.25;1.40;;;;;;;6.91;66.44;98662.50;10337764;28;20621;-72
2022/02/16 06:57:25;;;;;;;4.63;1.48;;;;;;;6.96;66.59;98651.78;10305769;28;20454;-71
2022/02/16 07:02:27;;;;;;;1.42;1.27;;;;;;;6.97;66.52;98643.06;10316767;28;20052;-72
2022/02/16 07:07:30;;;;;;;2.30;1.48;;;;;;;6.99;66.57;98631.66;10339171;28;20570;-71
2022/02/16 07:12:32;;;;;;;1.55;1.20;;;;;;;6.94;66.82;98625.91;10324989;28;20070;-71
2022/02/16 07:17:33;;;;;;;1.90;1.20;;;;;;;6.96;66.83;98621.44;10349929;28;20161;-71
2022/02/16 07:22:47;;;;;;;2.58;1.33;;;;;;;6.92;67.28;98621.72;10311767;28;20054;-71
2022/02/16 07:27:50;;;;;;;2.28;1.50;;;;;;;6.95;67.03;98603.34;10352383;28;20454;-71
2022/02/16 07:32:52;;;;;;;1.85;1.30;;;;;;;6.92;67.33;98599.19;10352143;28;20050;-73
2022/02/16 07:37:55;;;;;;;2.63;1.48;;;;;;;7.02;67.32;98599.44;10346157;28;20047;-72
2022/02/16 07:42:57;;;;;;;4.95;2.90;;;;;;;7.10;67.23;98586.75;10311503;28;20128;-72
2022/02/16 07:48:00;;;;;;;3.85;2.50;;;;;;;7.23;67.16;98581.53;10349655;28;20475;-73
2022/02/16 07:53:04;;;;;;;2.42;1.50;;;;;;;7.26;66.86;98565.75;10348746;28;20054;-72
2022/02/16 07:58:06;;;;;;;2.30;1.40;;;;;;;7.39;66.74;98562.19;10348564;28;20132;-72
2022/02/16 08:03:08;;;;;;;2.47;1.40;;;;;;;7.52;66.61;98551.78;10311185;28;20046;-71
2022/02/16 08:08:10;;;;;;;1.45;1.17;;;;;;;7.74;66.29;98539.78;10347278;28;20328;-72
2022/02/16 08:13:11;;;;;;;1.65;1.10;;;;;;;7.85;66.16;98536.44;10310589;28;20062;-71
2022/02/16 08:18:16;;;;;;;1.70;1.30;;;;;;;7.91;65.75;98536.84;10334723;28;20135;-71
2022/02/16 08:23:19;;;;;;;1.15;1.00;;;;;;;7.79;65.79;98516.03;10328987;28;20045;-72
2022/02/16 08:28:21;;;;;;;1.42;1.10;;;;;;;7.85;65.48;98508.59;10309657;28;20582;-71
2022/02/16 08:33:22;;;;;;;1.98;1.02;;;;;;;7.83;65.45;98505.28;10343324;28;20058;-72
2022/02/16 08:38:24;;;;;;;1.33;1.10;;;;;;;7.93;65.29;98501.09;10316376;28;20542;-72
2022/02/16 08:43:27;;;;;;;1.88;1.20;;;;;;;7.91;65.22;98494.34;10308227;28;20210;-72
2022/02/16 08:48:29;;;;;;;2.80;1.10;;;;;;;8.01;64.88;98490.13;10323049;28;20100;-72
2022/02/16 08:53:31;;;;;;;1.27;1.10;;;;;;;8.07;65.11;98491.47;10316437;28;20397;-73
2022/02/16 08:58:33;;;;;;;1.00;0.90;;;;;;;8.18;64.89;98478.53;10331864;28;20049;-71
2022/02/16 09:03:35;;;;;;;1.40;1.30;;;;;;;8.30;64.79;98480.25;10314163;28;20145;-72
2022/02/16 09:08:37;;;;;;;1.38;1.10;;;;;;;8.31;64.84;98489.69;10340430;28;20125;-71
2022/02/16 09:13:38;;;;;;;1.90;0.90;;;;;;;8.17;65.28;98472.50;10323788;28;20229;-71
2022/02/16 09:18:40;;;;;;;1.25;1.05;;;;;;;8.15;65.53;98457.91;10345229;28;20050;-70
2022/02/16 09:23:42;;;;;;;1.45;1.17;;;;;;;8.22;65.73;98457.34;10320892;28;20058;-71
2022/02/16 09:28:44;;;;;;;1.48;1.02;;;;;;;8.25;65.74;98438.06;10307355;28;20054;-71
2022/02/16 09:33:46;;;;;;;1.10;1.02;;;;;;;8.44;65.48;98427.94;10330992;28;20058;-73
2022/02/16 09:38:47;;;;;;;1.65;1.10;;;;;;;8.72;64.87;98427.53;10316446;28;20326;-72
2022/02/16 09:43:50;;;;;;;1.58;1.10;;;;;;;9.22;63.99;98441.91;10320663;28;20514;-72
2022/02/16 09:48:53;;;;;;;2.03;0.95;;;;;;;9.33;63.62;98461.00;10311375;28;20053;-72
2022/02/16 09:53:55;;;;;;;1.70;1.10;;;;;;;9.14;63.91;98470.34;10332297;28;20054;-66
2022/02/16 09:58:57;;;;;;;1.20;1.00;;;;;;;9.04;63.82;98449.34;10340530;28;20042;-67
2022/02/16 10:04:09;;;;;;;2.40;1.10;;;;;;;9.16;63.78;98431.94;10305283;28;20647;-67
2022/02/16 10:09:40;;;;;;;1.20;1.10;;;;;;;9.56;62.90;98423.47;10311130;28;20054;-66
2022/02/16 10:14:45;;;;;;;1.20;1.10;;;;;;;9.88;62.71;98438.38;10314509;28;20869;-66
2022/02/16 10:19:48;;;;;;;1.15;1.02;;;;;;;9.60;63.15;98443.19;10345546;28;20148;-67
2022/02/16 10:24:50;;;;;;;2.72;1.00;;;;;;;9.46;63.71;98429.56;10314002;28;20144;-66
2022/02/16 10:29:51;;;;;;;1.33;0.90;;;;;;;9.55;63.60;98434.03;10320208;28;20177;-66
2022/02/16 10:34:56;;;;;;;0.90;0.88;;;;;;;9.68;63.32;98434.75;10305189;28;20056;-67
2022/02/16 10:40:14;;;;;;;0.80;0.80;;;;;;;9.60;63.13;98432.72;10305628;28;20541;-67
2022/02/16 10:45:15;;;;;;;0.80;0.80;;;;;;;9.72;63.30;98435.34;10336892;28;20054;-67
2022/02/16 10:50:18;;;;;;;0.70;0.50;;;;;;;9.82;63.32;98447.53;10315866;28;20056;-68
2022/02/16 10:55:54;;;;;;;0.63;0.63;;;;;;;9.82;63.55;98442.31;10344713;28;20072;-68
2022/02/16 11:00:57;;;;;;;0.75;0.60;;;;;;;10.29;62.81;98446.31;10330160;28;20491;-67
2022/02/16 11:06:04;;;;;;;0.88;0.57;;;;;;;10.35;62.48;98445.78;10312280;28;20058;-67
2022/02/16 11:11:06;;;;;;;0.80;0.60;;;;;;;10.31;62.56;98450.47;10341601;28;20125;-67
2022/02/16 11:16:08;;;;;;;0.60;0.60;;;;;;;10.68;61.67;98443.00;10348281;28;20072;-67
2022/02/16 11:21:16;;;;;;;1.23;1.10;;;;;;;10.92;61.10;98450.56;10352731;28;20073;-68
2022/02/16 11:26:40;;;;;;;0.70;0.70;;;;;;;10.83;61.71;98436.47;10344036;28;20569;-67
2022/02/16 11:31:42;;;;;;;5.07;3.03;;;;;;;10.84;62.06;98414.63;10319492;28;20149;-67
2022/02/16 11:36:56;;;;;;;1.00;0.90;;;;;;;10.99;61.72;98396.78;10350582;28;20141;-67
2022/02/16 11:42:00;;;;;;;0.95;0.85;;;;;;;11.26;61.26;98386.56;10311517;28;20051;-68
2022/02/16 11:47:03;;;;;;;1.25;0.77;;;;;;;11.16;60.98;98397.03;10335541;28;20404;-67
2022/02/16 11:52:37;;;;;;;0.60;0.60;;;;;;;11.25;60.50;98409.28;10351495;28;20053;-68
2022/02/16 11:57:51;;;;;;;0.68;0.68;;;;;;;11.48;59.84;98409.13;10322634;28;20101;-67
2022/02/16 12:02:55;;;;;;;0.98;0.70;;;;;;;11.62;60.13;98385.16;10344336;28;20597;-67
2022/02/16 12:08:14;;;;;;;0.50;0.50;;;;;;;11.69;59.64;98387.09;10349532;28;20046;-66
2022/02/16 12:13:25;;;;;;;0.57;0.40;;;;;;;11.68;59.50;98382.81;10327601;28;20054;-66
2022/02/16 12:18:29;;;;;;;0.50;0.50;;;;;;;11.73;59.90;98380.63;10349929;28;20050;-68
2022/02/16 12:23:39;;;;;;;0.73;0.70;;;;;;;11.89;59.73;98380.91;10349914;28;20132;-66
2022/02/16 12:28:48;;;;;;;0.20;0.20;;;;;;;11.48;60.32;98385.56;10333387;28;20149;-67
2022/02/16 12:34:01;;;;;;;0.30;0.30;;;;;;;11.59;60.32;98377.56;10349934;28;20048;-66
2022/02/16 12:39:07;;;;;;;0.50;0.40;;;;;;;11.49;60.61;98366.25;10324986;28;20568;-67
2022/02/16 12:44:11;;;;;;;0.40;0.40;;;;;;;11.61;60.46;98350.28;10332183;28;20342;-67
2022/02/16 12:49:16;;;;;;;0.47;0.40;;;;;;;11.75;60.11;98367.38;10349116;28;20108;-67
2022/02/16 12:54:25;;;;;;;1.67;0.80;;;;;;;11.88;59.96;98367.97;10344115;28;20038;-67
2022/02/16 12:59:36;;;;;;;0.88;0.40;;;;;;;11.95;60.20;98335.81;10325088;28;20072;-67
2022/02/16 13:04:53;;;;;;;4.25;2.20;;;;;;;11.89;60.23;98338.16;10310463;28;20061;-68
2022/02/16 13:09:56;;;;;;;1.90;1.10;;;;;;;12.12;59.89;98339.53;10347939;28;20150;-68
2022/02/16 13:15:03;;;;;;;1.13;0.70;;;;;;;12.18;59.84;98332.91;10341127;28;20474;-68
2022/02/16 13:20:17;;;;;;;1.67;0.90;;;;;;;12.42;59.21;98334.13;10347701;28;20072;-67
2022/02/16 13:25:45;;;;;;;0.60;0.60;;;;;;;12.51;59.08;98330.66;10347222;28;20061;-68
2022/02/16 13:30:50;;;;;;;0.50;0.50;;;;;;;12.61;59.06;98326.22;10339673;28;20053;-66
2022/02/16 13:35:58;;;;;;;0.70;0.70;;;;;;;12.67;59.06;98325.66;10319561;28;20058;-66
2022/02/16 13:41:07;;;;;;;0.40;0.40;;;;;;;12.56;59.53;98307.44;10306331;28;20495;-66
2022/02/16 13:46:42;;;;;;;0.45;0.45;;;;;;;12.60;58.71;98287.84;10305815;28;20051;-66
2022/02/16 13:51:49;;;;;;;1.00;0.90;;;;;;;12.45;59.46;98278.78;10331992;28;20177;-66
2022/02/16 13:57:18;;;;;;;2.28;1.40;;;;;;;12.26;59.50;98265.72;10322566;28;20054;-65
2022/02/16 14:02:22;;;;;;;2.05;1.20;;;;;;;12.50;59.74;98271.31;10305585;28;20121;-65
2022/02/16 14:07:25;;;;;;;1.05;0.90;;;;;;;12.35;60.37;98288.50;10305609;28;20061;-66
2022/02/16 14:12:47;;;;;;;2.70;0.98;;;;;;;12.48;60.04;98288.97;10332024;28;20068;-66
2022/02/16 14:17:50;;;;;;;0.73;0.70;;;;;;;12.43;60.49;98301.72;10311774;28;20141;-65
2022/02/16 14:22:52;;;;;;;1.00;0.38;;;;;;;12.18;62.00;98309.31;10304739;28;20050;-66
2022/02/16 14:27:54;;;;;;;1.00;0.52;;;;;;;12.34;62.07;98310.41;10305146;28;20076;-66
2022/02/16 14:32:56;;;;;;;0.50;0.50;;;;;;;12.27;62.17;98293.59;10313724;28;20149;-66
2022/02/16 14:37:58;;;;;;;1.67;0.70;;;;;;;12.25;61.87;98292.91;10344102;28;20328;-66
2022/02/16 14:43:00;;;;;;;2.25;0.52;;;;;;;12.13;62.10;98299.25;10326958;28;20566;-65
2022/02/16 14:48:01;;;;;;;1.65;0.73;;;;;;;12.24;61.29;98306.97;10331740;28;20491;-67
2022/02/16 14:53:03;;;;;;;0.77;0.77;;;;;;;12.28;61.18;98289.16;10305890;28;20141;-67
2022/02/16 14:58:09;;;;;;;1.10;0.50;;;;;;;12.29;60.81;98310.03;10314109;28;20053;-67
2022/02/16 15:03:14;;;;;;;0.80;0.60;;;;;;;12.30;60.89;98332.63;10311046;28;20046;-67
2022/02/16 15:08:16;;;;;;;2.65;0.80;;;;;;;12.37;60.51;98331.13;10311881;28;20129;-67
2022/02/16 15:13:20;;;;;;;1.83;0.93;;;;;;;12.29;60.61;98317.06;10310839;28;20618;-67
2022/02/16 15:18:22;;;;;;;1.02;0.90;;;;;;;12.14;61.48;98332.34;10314279;28;20137;-67
2022/02/16 15:23:24;;;;;;;1.80;0.80;;;;;;;12.02;62.20;98318.59;10327260;28;20070;-67
2022/02/16 15:28:26;;;;;;;2.17;1.10;;;;;;;12.10;61.96;98316.09;10303451;28;20050;-68
2022/02/16 15:33:28;;;;;;;2.00;0.82;;;;;;;12.10;61.45;98310.03;10307271;28;20649;-68
2022/02/16 15:38:30;;;;;;;4.85;0.90;;;;;;;11.98;61.42;98306.72;10311380;28;20056;-68
2022/02/16 15:43:31;;;;;;;2.42;1.08;;;;;;;12.11;60.79;98282.84;10329708;28;20050;-68
2022/02/16 15:48:34;;;;;;;1.33;0.73;;;;;;;12.23;60.44;98267.78;10309938;28;20065;-68
2022/02/16 15:53:37;;;;;;;2.35;1.00;;;;;;;12.35;59.72;98241.31;10311074;28;20049;-68
2022/02/16 15:58:39;;;;;;;3.00;1.02;;;;;;;12.26;59.65;98233.41;10312192;28;20052;-68
2022/02/16 16:03:40;;;;;;;3.17;0.90;;;;;;;12.27;59.72;98254.28;10335619;28;20141;-68
2022/02/16 16:08:44;;;;;;;1.83;1.10;;;;;;;12.21;59.88;98246.97;10315665;28;20115;-68
2022/02/16 16:13:46;;;;;;;2.45;1.10;;;;;;;12.22;59.97;98250.41;10319182;28;20533;-68
2022/02/16 16:18:52;;;;;;;1.70;0.80;;;;;;;12.22;60.11;98263.50;10310741;28;20085;-67
2022/02/16 16:23:54;;;;;;;3.05;1.15;;;;;;;12.21;60.04;98246.97;10311405;28;20086;-67
2022/02/16 16:28:57;;;;;;;2.50;1.10;;;;;;;12.21;58.95;98254.84;10316118;28;20050;-67
2022/02/16 16:33:59;;;;;;;2.45;1.15;;;;;;;12.26;58.65;98255.22;10325125;28;20054;-67
2022/02/16 16:39:00;;;;;;;4.18;1.35;;;;;;;12.26;58.17;98255.22;10309762;28;20049;-67
2022/02/16 16:44:03;;;;;;;3.50;1.23;;;;;;;12.27;57.73;98267.38;10317212;28;20447;-67
2022/02/16 16:49:05;;;;;;;3.30;1.30;;;;;;;12.21;57.87;98267.94;10309616;28;20058;-67
2022/02/16 16:54:12;;;;;;;5.63;1.60;;;;;;;12.13;58.04;98252.91;10310841;28;20054;-67
2022/02/16 16:59:16;;;;;;;2.30;1.20;;;;;;;11.96;58.14;98239.72;10309398;28;20125;-66
2022/02/16 17:04:20;;;;;;;2.72;1.10;;;;;;;12.06;58.06;98246.59;10314029;28;20419;-67
2022/02/16 17:09:22;;;;;;;4.80;2.03;;;;;;;12.14;57.84;98232.78;10315212;28;20517;-67
2022/02/16 17:14:25;;;;;;;7.25;3.30;;;;;;;12.13;58.27;98273.03;10308739;28;20777;-67
2022/02/16 17:19:27;;;;;;;4.43;1.35;;;;;;;12.28;57.95;98253.31;10309677;28;20403;-67
2022/02/16 17:24:29;;;;;;;4.20;1.40;;;;;;;12.26;58.03;98233.41;10308421;28;20046;-67
2022/02/16 17:29:30;;;;;;;2.33;1.20;;;;;;;12.25;58.15;98230.00;10306563;28;20061;-67
2022/02/16 17:34:32;;;;;;;3.25;1.30;;;;;;;12.30;58.45;98217.31;10329428;28;20222;-67
2022/02/16 17:39:34;;;;;;;3.83;1.27;;;;;;;12.27;58.83;98211.50;10321299;28;20047;-66
2022/02/16 17:44:41;;;;;;;3.90;1.40;;;;;;;12.14;60.67;98198.72;10311548;28;20162;-67
2022/02/16 17:49:44;;;;;;;3.42;1.52;;;;;;;11.89;62.57;98170.50;10313557;28;20046;-67
2022/02/16 17:54:47;;;;;;;5.63;1.65;;;;;;;11.66;63.49;98180.47;10326300;28;20049;-67
2022/02/16 18:00:13;;;;;;;3.75;1.48;;;;;;;11.68;63.82;98169.88;10333451;28;20050;-66
2022/02/16 18:05:17;;;;;;;5.55;1.52;;;;;;;11.67;64.14;98174.28;10331364;28;20082;-67
2022/02/16 18:10:20;;;;;;;3.13;1.40;;;;;;;11.42;65.88;98187.16;10328077;28;20080;-66
2022/02/16 18:15:25;;;;;;;3.22;1.33;;;;;;;11.37;66.23;98186.72;10330269;28;20033;-66
2022/02/16 18:20:27;;;;;;;5.97;1.38;;;;;;;11.35;66.57;98192.13;10323543;28;20052;-66
2022/02/16 18:25:29;;;;;;;2.47;1.10;;;;;;;11.40;66.80;98205.59;10318087;28;20241;-67
2022/02/16 18:30:31;;;;;;;2.03;1.20;;;;;;;11.42;67.12;98176.69;10323202;28;20039;-66
2022/02/16 18:35:34;;;;;;;1.70;0.88;;;;;;;11.49;66.80;98167.28;10326883;28;20093;-67
2022/02/16 18:40:36;;;;;;;1.48;0.90;;;;;;;11.52;67.02;98156.56;10320784;28;20081;-67
2022/02/16 18:45:39;;;;;;;2.03;0.80;;;;;;;11.65;66.43;98149.22;10324978;28;20054;-67
2022/02/16 18:50:41;;;;;;;3.50;0.95;;;;;;;11.54;67.09;98137.09;10325555;28;20050;-66
2022/02/16 18:55:43;;;;;;;3.00;1.60;;;;;;;11.49;67.34;98128.03;10317665;28;20057;-67
2022/02/16 19:00:45;;;;;;;1.77;1.00;;;;;;;11.67;66.72;98121.91;10321819;28;20128;-67
2022/02/16 19:05:46;;;;;;;1.85;1.00;;;;;;;11.71;66.75;98119.84;10317781;28;20558;-67
2022/02/16 19:10:48;;;;;;;1.23;0.80;;;;;;;11.91;66.08;98097.84;10335939;28;20133;-66
2022/02/16 19:15:51;;;;;;;1.77;1.08;;;;;;;11.92;66.02;98089.03;10331719;28;20368;-66
2022/02/16 19:20:53;;;;;;;2.22;1.15;;;;;;;12.07;65.50;98095.41;10336361;28;20566;-66
2022/02/16 19:25:56;;;;;;;2.53;1.50;;;;;;;12.03;65.67;98099.31;10331323;28;20057;-66
2022/02/16 19:31:03;;;;;;;2.67;1.60;;;;;;;12.07;65.78;98111.16;10321020;28;20057;-66
2022/02/16 19:36:05;;;;;;;2.72;1.52;;;;;;;12.00;66.60;98094.38;10317995;28;20125;-66
2022/02/16 19:41:07;;;;;;;1.90;1.30;;;;;;;12.09;66.30;98093.47;10320470;28;20465;-66
2022/02/16 19:46:11;;;;;;;1.95;1.27;;;;;;;12.10;66.18;98087.28;10328220;28;21325;-66
2022/02/16 19:51:13;;;;;;;3.50;2.00;;;;;;;12.23;65.57;98100.88;10313974;28;20054;-67
2022/02/16 19:56:15;;;;;;;1.90;0.98;;;;;;;12.38;65.05;98082.88;10316228;28;20499;-66
2022/02/16 20:01:17;;;;;;;3.05;1.30;;;;;;;12.35;65.47;98068.28;10330716;28;20402;-66
2022/02/16 20:06:19;;;;;;;1.35;1.08;;;;;;;12.39;65.41;98066.19;10323519;28;20050;-66
2022/02/16 20:11:20;;;;;;;1.23;0.60;;;;;;;12.27;65.65;98067.34;10317232;28;20053;-66
2022/02/16 20:16:22;;;;;;;1.42;1.00;;;;;;;12.50;65.09;98055.47;10329425;28;20514;-66
2022/02/16 20:21:24;;;;;;;1.40;0.82;;;;;;;12.52;65.02;98043.88;10323564;28;20304;-66
2022/02/16 20:26:26;;;;;;;2.25;1.40;;;;;;;12.38;65.76;98031.28;10335297;28;20401;-65
2022/02/16 20:31:28;;;;;;;2.50;1.40;;;;;;;12.52;65.06;98004.53;10319279;28;20058;-66
2022/02/16 20:36:29;;;;;;;3.17;1.35;;;;;;;12.56;65.11;98015.53;10324493;28;20086;-66
2022/02/16 20:41:31;;;;;;;3.38;1.35;;;;;;;12.47;65.87;98013.84;10334819;28;20136;-66
2022/02/16 20:46:33;;;;;;;1.50;1.20;;;;;;;12.18;67.53;98006.16;10316890;28;20068;-66
2022/02/16 20:51:36;;;;;;;1.45;0.65;;;;;;;12.11;68.00;97989.34;10325407;28;20056;-66
2022/02/16 20:56:38;;;;;;;1.45;1.00;;;;;;;12.23;67.73;98000.47;10321685;28;20083;-66
2022/02/16 21:01:42;;;;;;;2.40;0.85;;;;;;;12.30;67.58;98001.53;10323351;28;20042;-66
2022/02/16 21:06:44;;;;;;;2.45;1.20;;;;;;;12.25;68.00;97988.88;10313023;28;20068;-66
2022/02/16 21:11:46;;;;;;;2.08;0.98;;;;;;;12.33;67.70;97970.63;10321671;28;20064;-72
2022/02/16 21:16:49;;;;;;;1.02;0.80;;;;;;;12.36;67.53;97991.28;10329229;28;20041;-72
2022/02/16 21:22:12;;;;;;;0.70;0.70;;;;;;;12.30;67.16;97981.41;10322997;28;20768;-71
2022/02/16 21:27:17;;;;;;;1.40;0.50;;;;;;;12.58;66.50;97975.09;10316027;28;20069;-71
2022/02/16 21:32:20;;;;;;;0.30;0.28;;;;;;;12.66;66.15;97961.25;10327331;28;20143;-72
2022/02/16 21:37:27;;;;;;;0.43;0.43;;;;;;;12.68;65.95;97936.47;10322851;28;20050;-71
2022/02/16 21:42:28;;;;;;;3.33;0.70;;;;;;;12.78;65.64;97929.34;10323973;28;20046;-71
2022/02/16 21:47:34;;;;;;;0.50;0.50;;;;;;;12.74;65.86;97958.69;10326776;28;20046;-71
2022/02/16 21:52:43;;;;;;;0.40;0.40;;;;;;;12.69;66.51;97951.25;10321767;28;20376;-71
2022/02/16 21:57:45;;;;;;;0.82;0.60;;;;;;;12.57;67.12;97965.59;10323921;28;20050;-71
2022/02/16 22:02:47;;;;;;;0.68;0.60;;;;;;;12.54;67.52;97936.19;10319957;28;20132;-71
2022/02/16 22:07:48;;;;;;;0.63;0.60;;;;;;;12.40;68.35;97919.22;10320070;28;20470;-71
2022/02/16 22:12:50;;;;;;;0.30;0.30;;;;;;;12.44;68.07;97910.09;10325092;28;20069;-71
2022/02/16 22:17:57;;;;;;;1.30;0.65;;;;;;;12.47;67.64;97930.78;10320447;28;20048;-71
2022/02/16 22:22:59;;;;;;;1.55;0.70;;;;;;;12.63;66.90;97951.88;10315318;28;20073;-71
2022/02/16 22:28:00;;;;;;;0.28;0.28;;;;;;;12.59;67.10;97910.38;10320286;28;20050;-71
2022/02/16 22:33:02;;;;;;;1.05;0.50;;;;;;;12.68;66.18;97927.81;10311417;28;20543;-71
2022/02/16 22:38:04;;;;;;;0.47;0.47;;;;;;;12.67;66.09;97934.84;10307054;28;20050;-71
2022/02/16 22:43:05;;;;;;;0.68;0.43;;;;;;;12.72;65.61;97947.50;10305098;28;20421;-71
2022/02/16 22:48:07;;;;;;;0.30;0.30;;;;;;;12.91;65.16;97924.53;10319148;28;20268;-71
2022/02/16 22:53:09;;;;;;;0.40;0.30;;;;;;;12.82;65.41;97922.81;10310782;28;20042;-71
2022/02/16 22:58:11;;;;;;;2.35;0.43;;;;;;;12.98;64.86;97935.22;10306588;28;20141;-71
2022/02/16 23:03:16;;;;;;;0.90;0.50;;;;;;;13.08;64.08;97922.81;10306412;28;20046;-72
2022/02/16 23:13:39;;;;;;;0.50;0.50;;;;;;;13.05;63.81;97931.00;10305041;28;20495;-72
2022/02/16 23:18:41;;;;;;;0.20;0.20;;;;;;;13.09;63.62;97928.91;10307940;28;20042;-72
2022/02/16 23:23:44;;;;;;;2.65;0.30;;;;;;;13.06;63.57;97918.69;10306464;28;20125;-72
2022/02/16 23:28:46;;;;;;;0.57;0.40;;;;;;;13.11;63.49;97903.31;10305865;28;20077;-71
2022/02/16 23:33:49;;;;;;;1.17;0.50;;;;;;;12.92;63.88;97889.41;10315277;28;20050;-72
2022/02/16 23:38:51;;;;;;;0.32;0.32;;;;;;;12.98;64.10;97895.03;10306983;28;20594;-71
2022/02/16 23:43:53;;;;;;;0.82;0.50;;;;;;;12.80;65.17;97882.00;10304255;28;20046;-71
2022/02/16 23:48:55;;;;;;;0.65;0.50;;;;;;;12.61;66.02;97901.38;10304289;28;20054;-71